This is the latest recevied weather packets stored in our database for station/object KG4LKY-5. If no packets are shown the sender has not sent any weather packets the latest 1 day(s).
| Time | Temp. | Humidity | Pressure | Rain* | Wind** | Luminosity | Snow |
|---|---|---|---|---|---|---|---|
| 1778066044 | 15° C | 100% | 1010 hPa | 12.95 mm | - | - | - |
| 1778064243 | 15.56° C | 100% | 1009.4 hPa | 7.11 mm | - | - | - |
| 1778063642 | 15.56° C | 100% | 1009.4 hPa | 5.84 mm | - | - | - |
| 1778063041 | 16.11° C | 100% | 1008.9 hPa | 5.33 mm | - | - | - |
| 1778062741 | 15.56° C | 100% | 1008.9 hPa | 5.08 mm | - | - | - |
| 1778061840 | 15.56° C | 100% | 1008.5 hPa | 4.57 mm | - | - | - |
| 1778061540 | 15.56° C | 100% | 1008.7 hPa | 4.06 mm | - | - | - |
| 1778060939 | 15.56° C | 100% | 1008.3 hPa | 2.54 mm | - | - | - |
| 1778060639 | 16.11° C | 100% | 1008.3 hPa | 2.54 mm | - | - | - |
| 1778059738 | 15.56° C | 100% | 1008 hPa | 2.29 mm | - | - | - |
| 1778059438 | 15.56° C | 100% | 1008.1 hPa | 2.29 mm | - | - | - |
| 1778058837 | 16.11° C | 100% | 1008.1 hPa | 1.52 mm | - | - | - |
| 1778058537 | 16.11° C | 100% | 1008 hPa | 1.02 mm | - | - | - |
| 1778057637 | 16.11° C | 100% | 1007.7 hPa | 0.76 mm | - | - | - |
| 1778056432 | 16.11° C | 100% | 1007.2 hPa | 0.76 mm | - | - | - |
| 1778056132 | 16.11° C | 100% | 1007.4 hPa | 0.76 mm | - | - | - |
| 1778055231 | 16.67° C | 100% | 1007.4 hPa | 0.76 mm | - | - | - |
| 1778054931 | 17.22° C | 94% | 1007.5 hPa | 0.76 mm | - | - | - |
| 1778054630 | 16.67° C | 92% | 1007.6 hPa | 0.76 mm | - | - | - |
| 1778054030 | 17.78° C | 84% | 1007.4 hPa | 0.76 mm | - | - | - |
| 1778053429 | 17.78° C | 85% | 1007.5 hPa | 0.76 mm | - | - | - |
| 1778053129 | 17.22° C | 84% | 1007.6 hPa | 0.76 mm | - | - | - |
| 1778052528 | 17.78° C | 81% | 1007.7 hPa | 0.76 mm | - | - | - |
| 1778052228 | 17.78° C | 78% | 1007.6 hPa | 0.51 mm | - | - | - |
| 1778051928 | 17.78° C | 75% | 1007.6 hPa | 0.51 mm | - | - | - |
* Rain since midnight (hover to see other rain measurements)
** Current wind speed in m/s (hover to see current wind gust speed)